Time;durP1;ratioP1;P1;durP2;ratioP2;P2;SDS_P1;SDS_P2;PMS_P1;PMS_P2;Temp;Humidity;BMP_temperature;BMP_pressure;BME280_temperature;BME280_humidity;BME280_pressure;Samples;Min_cycle;Max_cycle;Signal;HPM_P1;HPM_P2
2021/10/23 00:01:49;;;;;;;5.85;3.10;;;23.50;99.90;;;;;;1962164;71;21705;-80
2021/10/23 00:04:20;;;;;;;5.95;3.00;;;23.50;99.90;;;;;;1956373;72;21199;-80
2021/10/23 00:06:51;;;;;;;5.87;2.87;;;23.60;99.90;;;;;;1963502;72;21228;-80
2021/10/23 00:09:22;;;;;;;7.00;3.90;;;23.50;99.90;;;;;;1933901;73;21160;-80
2021/10/23 00:11:53;;;;;;;6.65;4.75;;;23.60;99.90;;;;;;1958815;72;21645;-80
2021/10/23 00:14:24;;;;;;;6.65;3.70;;;23.60;99.90;;;;;;1981879;71;21394;-80
2021/10/23 00:16:55;;;;;;;5.95;3.98;;;23.50;99.90;;;;;;1960052;72;21839;-80
2021/10/23 00:19:26;;;;;;;5.50;3.70;;;23.60;99.90;;;;;;1927301;73;21074;-72
2021/10/23 00:21:57;;;;;;;5.75;3.62;;;23.50;99.90;;;;;;1976033;70;21115;-73
2021/10/23 00:24:28;;;;;;;6.58;4.08;;;23.70;99.90;;;;;;1974212;70;21119;-72
2021/10/23 00:26:59;;;;;;;5.45;3.75;;;23.60;99.90;;;;;;1968977;71;21072;-72
2021/10/23 00:29:29;;;;;;;6.35;3.05;;;23.80;99.90;;;;;;1977069;71;21248;-72
2021/10/23 00:32:00;;;;;;;5.72;3.27;;;23.60;99.90;;;;;;1969491;71;21244;-72
2021/10/23 00:34:31;;;;;;;4.87;3.37;;;23.70;99.90;;;;;;1973665;71;21148;-72
2021/10/23 00:37:02;;;;;;;8.80;3.92;;;23.70;99.90;;;;;;1976088;71;21083;-72
2021/10/23 00:39:33;;;;;;;4.67;3.05;;;23.80;99.90;;;;;;1970414;71;21177;-72
2021/10/23 00:42:04;;;;;;;4.75;3.17;;;23.80;99.90;;;;;;1973852;71;21686;-72
2021/10/23 00:44:38;;;;;;;4.30;3.42;;;23.80;99.90;;;;;;1974168;71;21194;-72
2021/10/23 00:47:09;;;;;;;4.42;3.55;;;23.90;99.90;;;;;;1951934;71;21159;-71
2021/10/23 00:49:41;;;;;;;5.58;3.62;;;23.80;99.90;;;;;;1977724;71;21065;-72
2021/10/23 00:52:13;;;;;;;4.85;2.85;;;23.90;99.90;;;;;;1967800;71;21584;-71
2021/10/23 00:54:44;;;;;;;6.58;3.95;;;24.00;99.90;;;;;;1978547;72;21159;-71
2021/10/23 00:57:15;;;;;;;6.40;3.85;;;24.00;99.90;;;;;;1964242;72;21092;-72
2021/10/23 00:59:46;;;;;;;5.95;3.77;;;24.00;99.90;;;;;;1957422;72;21155;-72
2021/10/23 01:02:17;;;;;;;7.35;3.47;;;24.00;99.90;;;;;;1957632;72;21291;-72
2021/10/23 01:04:48;;;;;;;5.83;3.95;;;24.20;99.90;;;;;;1968539;71;21116;-71
2021/10/23 01:07:20;;;;;;;7.67;3.83;;;24.20;99.90;;;;;;1977891;72;21179;-72
2021/10/23 01:09:51;;;;;;;5.08;3.75;;;24.10;99.90;;;;;;1969552;71;21150;-72
2021/10/23 01:12:22;;;;;;;6.15;3.98;;;24.30;99.90;;;;;;1971200;71;21147;-72
2021/10/23 01:14:56;;;;;;;6.95;4.30;;;24.20;99.90;;;;;;1985101;71;21155;-72
2021/10/23 01:17:26;;;;;;;5.25;3.40;;;24.30;99.90;;;;;;1916690;73;21120;-72
2021/10/23 01:19:57;;;;;;;4.95;2.80;;;24.40;99.90;;;;;;1965694;72;21193;-73
2021/10/23 01:22:29;;;;;;;4.50;3.52;;;24.30;99.90;;;;;;1956432;72;21085;-73
2021/10/23 01:25:00;;;;;;;4.22;3.62;;;24.40;99.90;;;;;;1895832;73;21692;-72
2021/10/23 01:27:31;;;;;;;6.08;3.30;;;24.50;99.90;;;;;;1921115;73;21152;-72
2021/10/23 01:30:02;;;;;;;4.97;3.27;;;24.40;99.90;;;;;;1973997;71;21213;-71
2021/10/23 01:32:33;;;;;;;4.62;3.40;;;24.60;99.90;;;;;;1956947;71;21112;-72
2021/10/23 01:35:05;;;;;;;11.60;3.55;;;24.60;99.90;;;;;;1960745;72;21159;-72
2021/10/23 01:37:39;;;;;;;6.58;3.45;;;24.80;99.90;;;;;;1962264;72;21151;-72
2021/10/23 01:40:12;;;;;;;9.00;3.25;;;24.70;99.90;;;;;;1967224;72;21213;-72
2021/10/23 01:42:44;;;;;;;6.97;3.30;;;24.80;99.90;;;;;;1962442;71;21528;-72
2021/10/23 01:45:15;;;;;;;5.67;3.17;;;24.80;99.90;;;;;;1972533;71;21145;-72
2021/10/23 01:47:49;;;;;;;6.97;3.50;;;25.00;99.90;;;;;;1972592;71;21611;-72
2021/10/23 01:50:22;;;;;;;6.45;3.50;;;24.90;99.90;;;;;;1971578;72;21622;-72
2021/10/23 01:52:54;;;;;;;4.10;3.10;;;25.00;99.90;;;;;;1972515;71;21587;-72
2021/10/23 01:55:25;;;;;;;5.42;3.58;;;25.10;99.90;;;;;;1952616;72;21120;-72
2021/10/23 01:57:57;;;;;;;5.60;3.05;;;25.00;99.90;;;;;;1959996;72;21197;-72
2021/10/23 02:00:30;;;;;;;4.78;2.92;;;25.00;99.90;;;;;;1977105;71;21752;-74
2021/10/23 02:03:01;;;;;;;4.85;3.12;;;25.20;99.90;;;;;;1946899;72;21253;-72
2021/10/23 02:05:31;;;;;;;3.75;2.67;;;25.20;99.90;;;;;;1964172;71;21132;-73
2021/10/23 02:08:02;;;;;;;4.47;2.65;;;25.10;99.90;;;;;;1970864;72;21201;-73
2021/10/23 02:10:33;;;;;;;3.85;2.70;;;25.30;99.90;;;;;;1952198;71;22001;-72
2021/10/23 02:13:04;;;;;;;5.70;2.40;;;25.40;99.90;;;;;;1960048;71;21186;-72
2021/10/23 02:15:36;;;;;;;4.03;2.83;;;25.20;99.90;;;;;;1961214;71;21584;-72
2021/10/23 02:18:06;;;;;;;4.40;2.67;;;25.30;99.90;;;;;;1942654;72;21104;-72
2021/10/23 02:20:37;;;;;;;4.75;2.62;;;25.30;99.90;;;;;;1960018;71;21222;-72
2021/10/23 02:23:08;;;;;;;4.87;2.58;;;25.40;99.90;;;;;;1971908;71;22031;-73
2021/10/23 02:25:39;;;;;;;5.30;2.30;;;25.40;99.90;;;;;;1962038;72;21166;-72
2021/10/23 02:28:09;;;;;;;4.25;3.10;;;25.40;99.90;;;;;;1975213;72;21576;-73
2021/10/23 02:30:40;;;;;;;6.30;2.42;;;25.30;99.90;;;;;;1967976;71;21120;-72
2021/10/23 02:33:11;;;;;;;5.65;3.50;;;25.60;99.90;;;;;;1962508;71;21114;-72
2021/10/23 02:35:42;;;;;;;4.28;2.87;;;25.40;99.90;;;;;;1970837;72;21485;-72
2021/10/23 02:38:13;;;;;;;4.72;2.83;;;25.40;99.90;;;;;;1958877;72;21127;-72
2021/10/23 02:40:44;;;;;;;4.87;2.92;;;25.40;99.90;;;;;;1903290;73;21090;-72
2021/10/23 02:43:15;;;;;;;6.50;3.02;;;25.60;99.90;;;;;;1910115;74;21149;-72
2021/10/23 02:45:46;;;;;;;3.90;2.67;;;25.80;99.90;;;;;;1969694;71;21119;-72
2021/10/23 02:48:17;;;;;;;3.62;2.90;;;26.00;99.90;;;;;;1959801;72;21130;-73
2021/10/23 02:50:51;;;;;;;3.87;2.50;;;26.00;99.90;;;;;;1957421;71;21155;-72
2021/10/23 02:53:22;;;;;;;4.40;2.20;;;26.10;99.90;;;;;;1964758;72;21245;-72
2021/10/23 02:55:53;;;;;;;4.65;2.60;;;26.20;99.90;;;;;;1924225;73;21090;-72
2021/10/23 02:58:23;;;;;;;5.33;2.65;;;26.30;99.90;;;;;;1956327;72;21653;-73
2021/10/23 03:00:54;;;;;;;3.00;2.20;;;26.40;99.90;;;;;;1981685;71;21187;-72
2021/10/23 03:03:25;;;;;;;4.92;2.60;;;26.60;99.90;;;;;;1972762;72;21123;-72
2021/10/23 03:05:56;;;;;;;4.00;2.60;;;26.50;99.90;;;;;;1968810;71;21172;-73
2021/10/23 03:08:26;;;;;;;4.10;2.00;;;26.60;99.90;;;;;;1963977;71;21154;-72
2021/10/23 03:10:57;;;;;;;2.90;2.08;;;26.70;99.90;;;;;;1975583;71;21130;-72
2021/10/23 03:13:28;;;;;;;7.58;3.45;;;27.00;99.90;;;;;;1966234;71;21666;-72
2021/10/23 03:15:58;;;;;;;4.70;2.50;;;26.90;99.90;;;;;;1960467;71;21178;-74
2021/10/23 03:18:30;;;;;;;5.95;2.75;;;27.10;99.90;;;;;;1967963;72;21159;-72
2021/10/23 03:21:01;;;;;;;3.72;2.40;;;;;;;;;;1964331;71;21212;-72
2021/10/23 03:23:36;;;;;;;4.55;2.50;;;;;;;;;;1967447;71;21084;-72
2021/10/23 03:26:07;;;;;;;3.30;2.12;;;27.40;99.90;;;;;;1961162;72;21111;-72
2021/10/23 03:28:38;;;;;;;3.87;2.20;;;27.60;99.90;;;;;;1962737;71;21147;-73
2021/10/23 03:31:09;;;;;;;6.22;2.52;;;27.50;99.90;;;;;;1964283;71;21123;-72
2021/10/23 03:33:40;;;;;;;3.30;2.27;;;27.60;99.90;;;;;;1971758;72;21597;-72
2021/10/23 03:36:11;;;;;;;3.95;2.10;;;27.70;99.90;;;;;;1966576;71;21898;-72
2021/10/23 03:38:42;;;;;;;3.47;2.10;;;27.70;99.90;;;;;;1968418;71;21147;-72
2021/10/23 03:41:13;;;;;;;3.47;2.30;;;27.60;99.90;;;;;;1922940;73;21215;-72
2021/10/23 03:43:44;;;;;;;3.20;1.95;;;27.70;99.90;;;;;;1963258;71;21167;-73
2021/10/23 03:46:15;;;;;;;4.35;2.45;;;27.40;99.90;;;;;;1976786;71;21147;-72
2021/10/23 03:48:46;;;;;;;4.90;2.35;;;27.50;99.90;;;;;;1984066;71;21111;-72
2021/10/23 03:51:17;;;;;;;4.42;2.40;;;27.60;99.90;;;;;;1972315;71;21187;-72
2021/10/23 03:53:47;;;;;;;5.05;2.33;;;27.50;99.90;;;;;;1949153;72;21147;-72
2021/10/23 03:56:18;;;;;;;3.15;2.15;;;27.50;99.90;;;;;;1963574;72;21217;-74
2021/10/23 03:58:49;;;;;;;3.60;1.98;;;27.40;99.90;;;;;;1975663;72;21238;-72
2021/10/23 04:01:20;;;;;;;26.20;5.70;;;27.60;99.90;;;;;;1974791;71;21171;-70
2021/10/23 04:03:51;;;;;;;4.83;2.47;;;27.60;99.90;;;;;;1959946;71;21151;-69
2021/10/23 04:06:22;;;;;;;5.95;2.87;;;27.40;99.90;;;;;;1964469;71;21088;-70
2021/10/23 04:08:52;;;;;;;3.60;2.20;;;27.60;99.90;;;;;;1970733;71;21183;-70
2021/10/23 04:11:23;;;;;;;3.92;2.02;;;27.60;99.90;;;;;;1921114;73;21143;-71
2021/10/23 04:13:54;;;;;;;4.55;2.15;;;27.50;99.90;;;;;;1892569;75;21122;-71
2021/10/23 04:16:25;;;;;;;2.92;2.00;;;27.80;99.90;;;;;;1965396;72;21123;-70
2021/10/23 04:18:56;;;;;;;4.80;2.30;;;27.70;99.90;;;;;;1966744;71;21095;-70
2021/10/23 04:21:28;;;;;;;4.20;1.92;;;27.80;99.90;;;;;;1954237;71;21181;-70
2021/10/23 04:23:58;;;;;;;4.58;1.75;;;27.70;99.90;;;;;;1964911;72;21719;-70
2021/10/23 04:26:29;;;;;;;6.05;3.20;;;27.80;99.90;;;;;;1940213;73;21078;-70
2021/10/23 04:29:00;;;;;;;4.53;2.60;;;28.00;99.90;;;;;;1884209;74;21169;-70
2021/10/23 04:31:32;;;;;;;4.12;2.02;;;27.90;99.90;;;;;;1940233;72;21587;-70
2021/10/23 04:34:03;;;;;;;3.95;2.22;;;28.00;99.90;;;;;;1934035;71;21120;-70
2021/10/23 04:36:34;;;;;;;4.35;2.05;;;27.90;99.90;;;;;;1939054;72;21073;-70
2021/10/23 04:39:05;;;;;;;3.85;1.95;;;27.90;99.90;;;;;;1953143;72;21247;-70
2021/10/23 04:41:37;;;;;;;4.20;2.00;;;27.90;99.90;;;;;;1989788;71;21212;-70
2021/10/23 04:44:07;;;;;;;3.55;2.10;;;28.10;99.90;;;;;;1972628;71;21183;-70
2021/10/23 04:46:38;;;;;;;4.05;1.90;;;28.00;99.90;;;;;;1979435;71;21115;-70
2021/10/23 04:49:10;;;;;;;2.80;1.80;;;28.00;99.90;;;;;;1972190;72;21154;-69
2021/10/23 04:51:40;;;;;;;3.45;1.75;;;28.00;99.90;;;;;;1954617;71;21100;-69
2021/10/23 04:54:11;;;;;;;3.35;1.80;;;27.80;99.90;;;;;;1965422;71;21147;-69
2021/10/23 04:56:42;;;;;;;6.03;1.90;;;27.80;99.90;;;;;;1969950;72;21701;-70
2021/10/23 04:59:13;;;;;;;4.58;2.00;;;28.00;99.90;;;;;;1971815;72;21731;-69
2021/10/23 05:01:44;;;;;;;3.35;1.90;;;27.90;99.90;;;;;;1983309;71;21147;-69
2021/10/23 05:04:15;;;;;;;2.85;1.82;;;28.00;99.90;;;;;;1979751;71;21206;-70
2021/10/23 05:06:46;;;;;;;18.70;2.83;;;28.10;99.90;;;;;;1963920;72;21112;-69
2021/10/23 05:09:18;;;;;;;4.62;2.00;;;28.10;99.90;;;;;;1985358;70;21727;-69
2021/10/23 05:11:48;;;;;;;3.37;1.72;;;28.20;99.90;;;;;;1972378;72;21080;-70
2021/10/23 05:14:20;;;;;;;3.42;2.33;;;28.20;99.90;;;;;;1964081;71;21175;-71
2021/10/23 05:16:51;;;;;;;3.25;1.82;;;28.30;99.90;;;;;;1965999;71;21824;-71
2021/10/23 05:19:23;;;;;;;3.25;1.77;;;28.30;99.90;;;;;;1965092;71;21655;-70
2021/10/23 05:21:53;;;;;;;3.83;2.12;;;28.30;99.90;;;;;;1961342;72;21103;-71
2021/10/23 05:24:25;;;;;;;4.97;2.27;;;28.70;99.90;;;;;;1955272;71;21151;-69
2021/10/23 05:26:56;;;;;;;3.00;1.80;;;28.50;99.90;;;;;;1969112;71;21132;-70
2021/10/23 05:29:27;;;;;;;5.33;1.92;;;28.50;99.90;;;;;;1959825;72;21593;-70
2021/10/23 05:31:57;;;;;;;2.80;2.00;;;28.70;99.90;;;;;;1969254;72;21159;-70
2021/10/23 05:34:28;;;;;;;2.45;1.75;;;28.70;99.90;;;;;;1942160;72;21143;-70
2021/10/23 05:36:59;;;;;;;4.40;2.00;;;28.60;99.90;;;;;;1913197;72;21152;-70
2021/10/23 05:39:30;;;;;;;3.08;1.95;;;28.60;99.90;;;;;;1952228;72;21115;-71
2021/10/23 05:42:00;;;;;;;6.35;2.30;;;28.60;99.90;;;;;;1975202;72;21200;-70
2021/10/23 05:44:31;;;;;;;4.72;2.25;;;28.60;99.90;;;;;;1967270;72;21849;-70
2021/10/23 05:47:03;;;;;;;4.45;2.30;;;28.60;99.90;;;;;;1978805;71;21529;-69
2021/10/23 05:49:33;;;;;;;3.08;1.70;;;28.50;99.90;;;;;;1954317;70;21668;-70
2021/10/23 05:52:04;;;;;;;2.40;1.60;;;;;;;;;;1957731;71;21432;-70
2021/10/23 05:54:37;;;;;;;3.67;1.62;;;;;;;;;;1967163;71;21154;-70
2021/10/23 05:57:07;;;;;;;3.70;1.90;;;;;;;;;;1957241;71;21123;-70
2021/10/23 05:59:41;;;;;;;4.20;2.40;;;;;;;;;;1968291;71;21218;-71
2021/10/23 06:04:43;;;;;;;2.85;2.00;;;28.50;99.90;;;;;;1966851;70;21656;-71
2021/10/23 06:07:15;;;;;;;4.05;1.90;;;28.60;99.90;;;;;;1961044;72;21532;-71
2021/10/23 06:09:46;;;;;;;3.22;1.72;;;28.60;99.90;;;;;;1967141;70;21159;-71
2021/10/23 06:12:17;;;;;;;4.60;1.90;;;28.70;99.90;;;;;;1976509;71;21171;-72
2021/10/23 06:14:48;;;;;;;2.83;2.00;;;28.60;99.90;;;;;;1969671;71;21143;-72
2021/10/23 06:17:19;;;;;;;3.37;1.90;;;28.70;99.90;;;;;;1929728;71;21623;-71
2021/10/23 06:19:50;;;;;;;2.72;1.82;;;28.60;99.90;;;;;;1971636;71;21161;-71
2021/10/23 06:22:21;;;;;;;3.77;1.85;;;28.60;99.90;;;;;;1965656;71;21221;-71
2021/10/23 06:24:52;;;;;;;2.85;1.77;;;28.70;99.90;;;;;;1969040;71;21100;-71
2021/10/23 06:27:23;;;;;;;2.62;1.42;;;28.50;99.30;;;;;;1963080;72;21225;-72
2021/10/23 06:29:54;;;;;;;3.10;1.92;;;28.50;99.50;;;;;;1980291;71;21175;-71
2021/10/23 06:32:25;;;;;;;2.62;1.30;;;28.70;99.40;;;;;;1974210;72;21087;-70
2021/10/23 06:34:55;;;;;;;3.22;1.47;;;28.50;99.30;;;;;;1968814;70;21592;-71
2021/10/23 06:37:27;;;;;;;2.55;1.52;;;28.60;99.20;;;;;;1972639;71;21107;-70
2021/10/23 06:39:58;;;;;;;5.47;2.20;;;28.50;99.20;;;;;;1954347;70;21167;-71
2021/10/23 06:42:29;;;;;;;4.35;1.92;;;28.70;99.30;;;;;;1956493;72;21589;-71
2021/10/23 06:45:00;;;;;;;2.12;1.52;;;28.60;99.40;;;;;;1971219;71;21163;-72
2021/10/23 06:47:31;;;;;;;2.90;1.65;;;28.60;99.10;;;;;;1970450;70;21217;-72
2021/10/23 06:50:02;;;;;;;6.50;1.70;;;28.70;99.00;;;;;;1958229;72;21080;-71
2021/10/23 06:52:33;;;;;;;1.98;1.40;;;28.70;99.20;;;;;;1965674;72;21163;-71
2021/10/23 06:55:05;;;;;;;3.80;1.55;;;28.80;99.30;;;;;;1968458;71;21110;-71
2021/10/23 06:57:36;;;;;;;3.37;1.60;;;28.60;99.20;;;;;;1976084;72;21218;-71
2021/10/23 07:00:08;;;;;;;4.72;1.75;;;28.70;99.30;;;;;;1945665;71;21207;-72
2021/10/23 07:02:41;;;;;;;3.08;1.40;;;28.70;99.30;;;;;;1977965;71;21287;-71
2021/10/23 07:05:15;;;;;;;3.08;1.60;;;28.70;99.60;;;;;;1962730;72;21202;-71
2021/10/23 07:07:46;;;;;;;3.08;1.70;;;28.60;99.70;;;;;;1963541;72;21128;-70
2021/10/23 07:10:18;;;;;;;2.72;1.80;;;28.60;99.60;;;;;;1973012;72;21603;-72
2021/10/23 07:12:51;;;;;;;2.17;1.40;;;28.80;99.30;;;;;;1962700;72;21728;-72
2021/10/23 07:15:21;;;;;;;2.67;1.40;;;28.80;99.30;;;;;;1946738;72;21691;-72
2021/10/23 07:17:52;;;;;;;3.25;1.70;;;28.80;99.30;;;;;;1969517;72;21525;-72
2021/10/23 07:20:24;;;;;;;3.20;1.98;;;28.60;99.10;;;;;;1949635;73;21119;-72
2021/10/23 07:22:56;;;;;;;2.17;1.60;;;28.70;99.70;;;;;;1957348;71;21599;-72
2021/10/23 07:25:27;;;;;;;2.58;1.50;;;28.60;99.50;;;;;;1957535;72;21116;-71
2021/10/23 07:27:57;;;;;;;3.12;1.82;;;28.80;99.60;;;;;;1965677;72;21112;-71
2021/10/23 07:30:28;;;;;;;3.02;1.40;;;28.80;99.70;;;;;;1961310;71;21104;-72
2021/10/23 07:32:59;;;;;;;3.75;1.60;;;28.80;99.50;;;;;;1971648;71;21674;-71
2021/10/23 07:35:30;;;;;;;3.42;1.95;;;28.80;99.60;;;;;;1966130;71;21197;-72
2021/10/23 07:38:07;;;;;;;2.47;1.67;;;28.90;99.50;;;;;;1963278;71;21146;-71
2021/10/23 07:40:34;;;;;;;2.42;1.70;;;28.80;99.20;;;;;;1970329;72;21170;-72
2021/10/23 07:43:05;;;;;;;3.22;1.45;;;28.80;99.40;;;;;;1922497;73;21070;-71
2021/10/23 07:45:36;;;;;;;3.10;1.77;;;29.10;99.60;;;;;;1960577;72;21199;-71
2021/10/23 07:48:07;;;;;;;2.40;1.52;;;28.80;99.50;;;;;;1963902;72;21657;-71
2021/10/23 07:50:37;;;;;;;2.30;1.60;;;28.80;99.60;;;;;;1971711;71;21165;-71
2021/10/23 07:53:09;;;;;;;4.70;1.62;;;28.90;99.70;;;;;;1958882;72;21143;-71
2021/10/23 07:55:40;;;;;;;3.37;2.15;;;29.00;99.80;;;;;;1918730;73;21167;-71
2021/10/23 07:58:11;;;;;;;3.15;2.12;;;28.80;99.80;;;;;;1970880;71;21079;-71
2021/10/23 08:00:42;;;;;;;4.40;2.05;;;28.80;99.90;;;;;;1964048;72;21490;-72
2021/10/23 08:03:13;;;;;;;3.72;1.92;;;28.70;99.80;;;;;;1977066;71;21325;-71
2021/10/23 08:05:44;;;;;;;3.87;2.02;;;28.70;99.90;;;;;;1963336;72;21159;-71
2021/10/23 08:08:15;;;;;;;2.42;1.52;;;28.60;99.90;;;;;;1968178;71;21241;-71
2021/10/23 08:10:46;;;;;;;4.47;2.08;;;28.60;99.90;;;;;;1978683;71;21158;-70
2021/10/23 08:13:17;;;;;;;3.50;1.60;;;28.70;99.90;;;;;;1958091;71;21146;-70
2021/10/23 08:15:48;;;;;;;42.23;9.05;;;28.40;99.90;;;;;;1959566;70;21626;-70
2021/10/23 08:18:19;;;;;;;4.67;2.52;;;28.50;99.90;;;;;;1945948;72;21145;-69
2021/10/23 08:20:49;;;;;;;3.27;2.00;;;28.60;99.90;;;;;;1964472;72;21214;-70
2021/10/23 08:23:21;;;;;;;4.42;2.40;;;28.40;99.90;;;;;;1977559;71;21171;-70
2021/10/23 08:25:53;;;;;;;3.90;1.77;;;28.40;99.90;;;;;;1961011;71;21705;-71
2021/10/23 08:28:25;;;;;;;2.37;1.32;;;28.50;99.90;;;;;;1962511;72;21527;-70
2021/10/23 08:30:56;;;;;;;3.62;2.15;;;28.50;99.90;;;;;;1950714;72;21619;-72
2021/10/23 08:33:28;;;;;;;4.17;1.82;;;28.40;99.90;;;;;;1964935;71;21476;-72
2021/10/23 08:36:00;;;;;;;2.75;1.52;;;28.40;99.90;;;;;;1964570;71;21644;-72
2021/10/23 08:38:30;;;;;;;3.67;1.87;;;28.40;99.90;;;;;;1960931;72;21194;-72
2021/10/23 08:41:03;;;;;;;3.08;1.80;;;28.40;99.90;;;;;;1957004;72;21126;-72
2021/10/23 08:43:36;;;;;;;4.00;1.87;;;28.50;99.90;;;;;;1970962;72;21181;-72
2021/10/23 08:46:09;;;;;;;7.50;3.40;;;28.30;99.90;;;;;;1970506;71;21136;-73
2021/10/23 08:48:41;;;;;;;3.87;2.12;;;28.30;99.90;;;;;;1969863;72;21198;-72
2021/10/23 08:51:13;;;;;;;4.97;2.10;;;28.20;99.90;;;;;;1968381;71;21112;-72
2021/10/23 08:53:44;;;;;;;3.72;2.80;;;28.40;99.90;;;;;;1961052;72;21128;-72
2021/10/23 08:56:15;;;;;;;3.40;2.45;;;28.30;99.90;;;;;;1964704;72;21104;-72
2021/10/23 08:58:46;;;;;;;2.95;1.70;;;28.30;99.90;;;;;;1973072;71;21205;-72
2021/10/23 09:01:17;;;;;;;40.75;7.30;;;28.20;99.90;;;;;;1952939;72;21716;-72
2021/10/23 09:03:50;;;;;;;4.12;2.40;;;28.20;99.90;;;;;;1959896;72;21162;-73
2021/10/23 09:06:23;;;;;;;4.35;1.75;;;28.20;99.90;;;;;;1937386;72;21127;-73
2021/10/23 09:08:56;;;;;;;3.33;2.25;;;28.20;99.90;;;;;;1924380;71;21077;-73
2021/10/23 09:11:29;;;;;;;3.70;1.87;;;28.40;99.90;;;;;;1946986;72;21268;-73
2021/10/23 09:14:03;;;;;;;5.62;3.30;;;28.50;99.90;;;;;;1949696;72;21643;-73
2021/10/23 09:16:34;;;;;;;6.10;3.17;;;28.20;99.90;;;;;;1960890;70;21131;-74
2021/10/23 09:19:07;;;;;;;3.85;2.58;;;28.30;99.90;;;;;;1915051;73;21154;-74
2021/10/23 09:21:40;;;;;;;3.72;2.10;;;28.20;99.90;;;;;;1912173;73;21141;-74
2021/10/23 09:24:13;;;;;;;3.58;2.40;;;28.50;99.90;;;;;;1888564;73;21239;-74
2021/10/23 09:26:45;;;;;;;4.75;2.60;;;28.50;99.90;;;;;;1958987;71;21253;-74
2021/10/23 09:29:19;;;;;;;4.05;2.20;;;28.30;99.90;;;;;;1959250;72;21289;-74
2021/10/23 09:31:55;;;;;;;4.23;2.50;;;28.10;99.90;;;;;;1963930;71;21227;-72
2021/10/23 09:34:26;;;;;;;5.28;2.00;;;28.10;99.90;;;;;;1971438;71;21365;-72
2021/10/23 09:36:58;;;;;;;3.60;2.25;;;28.10;99.90;;;;;;1958306;71;21140;-72
2021/10/23 09:39:33;;;;;;;4.95;2.47;;;28.10;99.90;;;;;;1954985;72;21595;-72
2021/10/23 09:42:06;;;;;;;3.22;1.92;;;28.10;99.90;;;;;;1959022;72;21600;-73
2021/10/23 09:44:40;;;;;;;3.40;2.02;;;28.20;99.90;;;;;;1982826;71;21567;-72
2021/10/23 09:47:10;;;;;;;3.62;2.25;;;28.00;99.90;;;;;;1979896;71;21122;-72
2021/10/23 09:49:41;;;;;;;4.50;1.90;;;28.20;99.90;;;;;;1976087;71;21104;-72
2021/10/23 09:52:13;;;;;;;3.77;2.47;;;27.90;99.90;;;;;;1966175;71;21198;-71
2021/10/23 09:54:44;;;;;;;5.87;2.30;;;28.00;99.90;;;;;;1969439;71;21656;-72
2021/10/23 09:57:19;;;;;;;3.08;2.22;;;28.00;99.90;;;;;;1966771;72;21215;-72
2021/10/23 09:59:48;;;;;;;5.03;2.37;;;27.90;99.90;;;;;;1951189;72;21165;-74
2021/10/23 10:02:21;;;;;;;4.30;1.90;;;28.10;99.90;;;;;;1941221;72;21631;-72
2021/10/23 10:04:52;;;;;;;3.72;1.87;;;28.00;99.90;;;;;;1963608;71;21112;-73
2021/10/23 10:07:23;;;;;;;4.20;2.37;;;28.10;99.90;;;;;;1980103;71;21619;-73
2021/10/23 10:09:54;;;;;;;4.85;1.95;;;28.30;99.90;;;;;;1961160;71;21195;-74
2021/10/23 10:12:25;;;;;;;5.05;2.10;;;28.10;99.90;;;;;;1976492;72;21620;-74
2021/10/23 10:14:57;;;;;;;2.83;1.98;;;28.10;99.90;;;;;;1948905;72;21107;-73
2021/10/23 10:17:29;;;;;;;4.62;2.08;;;28.10;99.90;;;;;;1969917;71;21259;-73
2021/10/23 10:20:01;;;;;;;3.25;1.85;;;28.20;99.90;;;;;;1967084;72;21580;-72
2021/10/23 10:22:31;;;;;;;4.47;2.37;;;28.00;99.90;;;;;;1973008;71;21621;-73
2021/10/23 10:25:05;;;;;;;4.65;2.08;;;27.90;99.90;;;;;;1957817;71;21201;-73
2021/10/23 10:27:39;;;;;;;2.98;2.00;;;28.00;99.90;;;;;;1946719;72;21718;-73
2021/10/23 10:30:13;;;;;;;3.92;2.12;;;28.00;99.90;;;;;;1954493;71;22083;-73
2021/10/23 10:32:44;;;;;;;2.80;2.10;;;28.00;99.90;;;;;;1963566;72;21614;-72
2021/10/23 10:38:03;;;;;;;3.52;2.25;;;27.80;99.90;;;;;;1953963;72;21147;-74
2021/10/23 10:43:00;;;;;;;4.92;2.87;;;27.80;99.90;;;;;;1966746;72;21141;-73
2021/10/23 10:45:33;;;;;;;5.67;2.12;;;27.70;99.90;;;;;;1972880;71;21363;-72
2021/10/23 10:48:07;;;;;;;3.58;2.45;;;27.90;99.90;;;;;;1935452;72;21823;-74
2021/10/23 10:50:40;;;;;;;5.78;2.80;;;27.90;99.90;;;;;;1942937;72;21592;-73
2021/10/23 10:53:13;;;;;;;4.37;2.75;;;27.70;99.90;;;;;;1941317;72;21588;-72
2021/10/23 10:55:46;;;;;;;3.90;2.67;;;27.70;99.90;;;;;;1929289;73;21113;-72
2021/10/23 10:58:20;;;;;;;5.55;3.00;;;27.80;99.90;;;;;;1965595;72;21143;-74
2021/10/23 11:00:52;;;;;;;5.80;3.72;;;27.60;99.90;;;;;;1945764;72;21048;-73
2021/10/23 11:03:25;;;;;;;5.85;2.83;;;27.70;99.90;;;;;;1930455;72;21173;-72
2021/10/23 11:05:56;;;;;;;4.12;2.60;;;27.50;99.90;;;;;;1943179;72;22058;-77
2021/10/23 11:08:27;;;;;;;9.80;3.47;;;27.70;99.90;;;;;;1967120;71;21222;-72
2021/10/23 11:11:00;;;;;;;16.37;11.05;;;27.40;99.90;;;;;;1966474;71;21114;-74
2021/10/23 11:13:33;;;;;;;8.98;5.58;;;27.60;99.90;;;;;;1960851;71;21607;-72
2021/10/23 11:16:06;;;;;;;7.65;4.25;;;27.30;99.90;;;;;;1968992;71;21135;-71
2021/10/23 11:18:39;;;;;;;5.60;3.83;;;27.50;99.90;;;;;;1949832;71;21694;-73
2021/10/23 11:21:10;;;;;;;5.90;4.33;;;27.40;99.90;;;;;;1926416;73;21558;-72
2021/10/23 11:23:40;;;;;;;6.78;4.65;;;27.30;99.90;;;;;;1961708;72;21211;-72
2021/10/23 11:26:12;;;;;;;6.67;4.30;;;27.30;99.90;;;;;;1960364;72;21728;-72
2021/10/23 11:28:43;;;;;;;7.42;3.65;;;27.30;99.90;;;;;;1951580;71;21689;-72
2021/10/23 11:31:17;;;;;;;4.50;3.20;;;27.20;99.90;;;;;;1970978;70;21155;-72
2021/10/23 11:33:47;;;;;;;6.83;3.83;;;27.20;99.90;;;;;;1964707;71;21104;-71
2021/10/23 11:36:19;;;;;;;5.42;3.80;;;27.20;99.90;;;;;;1962227;72;21579;-72
2021/10/23 11:38:52;;;;;;;10.40;3.72;;;27.20;99.90;;;;;;1974311;72;22604;-72
2021/10/23 11:41:25;;;;;;;6.90;4.35;;;27.20;99.90;;;;;;1974425;71;21119;-73
2021/10/23 11:43:58;;;;;;;7.05;4.58;;;27.10;99.90;;;;;;1989497;72;21571;-72
2021/10/23 11:46:29;;;;;;;8.23;4.20;;;27.20;99.90;;;;;;1976099;71;21154;-72
2021/10/23 11:49:01;;;;;;;6.30;4.97;;;27.30;99.90;;;;;;1978274;71;21068;-73
2021/10/23 11:51:32;;;;;;;7.45;4.62;;;27.20;99.90;;;;;;1971618;71;21103;-72
2021/10/23 11:54:05;;;;;;;8.85;4.22;;;27.10;99.90;;;;;;1980674;71;21551;-72
2021/10/23 11:56:39;;;;;;;13.10;5.12;;;27.10;99.90;;;;;;1980240;71;21147;-72
2021/10/23 11:59:08;;;;;;;10.78;5.15;;;27.10;99.90;;;;;;1985221;71;21626;-73
2021/10/23 12:01:41;;;;;;;10.32;6.37;;;27.10;99.90;;;;;;1976294;71;21139;-75
2021/10/23 12:04:13;;;;;;;13.65;8.98;;;27.20;99.90;;;;;;1966392;72;21683;-73
2021/10/23 12:06:44;;;;;;;11.83;7.25;;;27.10;99.90;;;;;;1965546;72;21993;-72
2021/10/23 12:09:16;;;;;;;11.15;6.75;;;27.00;99.90;;;;;;1975793;71;21085;-73
2021/10/23 12:11:52;;;;;;;9.60;6.80;;;27.00;99.90;;;;;;1979399;71;21617;-74
2021/10/23 12:14:25;;;;;;;9.88;6.75;;;26.90;99.90;;;;;;1975949;71;21538;-74
2021/10/23 12:16:59;;;;;;;12.45;6.20;;;26.90;99.90;;;;;;1982458;71;21673;-73
2021/10/23 12:19:33;;;;;;;9.38;6.22;;;26.90;99.90;;;;;;1966494;72;21643;-73
2021/10/23 12:22:04;;;;;;;10.23;5.75;;;27.00;99.90;;;;;;1969913;71;21045;-73
2021/10/23 12:24:38;;;;;;;9.13;6.58;;;27.10;99.90;;;;;;1989032;71;21212;-72
2021/10/23 12:27:08;;;;;;;9.63;5.40;;;27.10;99.90;;;;;;1986072;70;21127;-72
2021/10/23 12:29:40;;;;;;;7.33;5.20;;;26.90;99.90;;;;;;1987572;71;21138;-72
2021/10/23 12:32:13;;;;;;;10.20;5.58;;;26.90;99.90;;;;;;1971111;71;21689;-72
2021/10/23 12:34:46;;;;;;;7.58;5.72;;;26.70;99.90;;;;;;1913883;74;21576;-72
2021/10/23 12:37:20;;;;;;;8.58;6.15;;;26.70;99.90;;;;;;1915620;74;21700;-72
2021/10/23 12:39:54;;;;;;;12.05;7.08;;;26.90;99.90;;;;;;1911535;73;21602;-72
2021/10/23 12:42:25;;;;;;;8.55;6.47;;;26.80;99.90;;;;;;1985374;71;21682;-72
2021/10/23 12:44:55;;;;;;;8.75;6.33;;;26.80;99.90;;;;;;1976945;71;21747;-72
2021/10/23 12:47:26;;;;;;;11.73;6.87;;;26.70;99.90;;;;;;1993072;71;21657;-72
2021/10/23 12:49:57;;;;;;;9.93;6.78;;;26.70;99.90;;;;;;1991622;71;21173;-72
2021/10/23 12:52:28;;;;;;;10.58;6.72;;;26.70;99.90;;;;;;1964094;73;21129;-72
2021/10/23 12:54:59;;;;;;;10.68;6.30;;;26.80;99.90;;;;;;1948829;73;21254;-72
2021/10/23 12:57:30;;;;;;;9.40;6.28;;;26.70;99.90;;;;;;1912461;73;21571;-72
2021/10/23 13:00:01;;;;;;;9.83;5.80;;;26.70;99.90;;;;;;1914369;73;21226;-72
2021/10/23 13:02:32;;;;;;;8.08;5.47;;;26.60;99.90;;;;;;1966169;72;21209;-72
2021/10/23 13:05:05;;;;;;;9.63;6.00;;;26.70;99.90;;;;;;1975651;72;21112;-72
2021/10/23 13:07:36;;;;;;;15.65;7.20;;;26.70;99.90;;;;;;1930802;73;21163;-72
2021/10/23 13:10:09;;;;;;;11.50;7.30;;;26.60;99.90;;;;;;1920158;73;21257;-72
2021/10/23 13:12:41;;;;;;;10.50;7.62;;;26.60;99.90;;;;;;1976965;71;21139;-72
2021/10/23 13:15:15;;;;;;;15.30;8.30;;;26.50;99.90;;;;;;1984507;72;21162;-71
2021/10/23 13:17:46;;;;;;;14.20;7.55;;;26.60;99.90;;;;;;1986261;71;21159;-82